NZQN/ZQN METAR and TAF weather

Enter ICAO airport designator
Station Type Date Time Source
NZQN METAR 2021/01/21 17:00 UTC NOAA

NZQN 211700Z AUTO 20004KT 7000 FEW055/// OVC080/// 11/07 Q1004


Station Type Date Time Source
NZQN Decoded METAR 2021/01/21 17:00 UTC NOAA

Station name not available
Jan 21, 2021 - 12:00 PM EST / 2021.01.21 1700 UTC
Wind: from the SSW (200 degrees) at 5 MPH (4 KT):0
Visibility: 4 mile(s):0
Sky conditions: overcast
Temperature: 51 F (11 C)
Dew Point: 44 F (7 C)
Relative Humidity: 76%
Pressure (altimeter): 29.65 in. Hg (1004 hPa)
ob: NZQN 211700Z AUTO 20004KT 7000 FEW055/// OVC080/// 11/07 Q1004
cycle: 17

Station Type Date Time Source
NZQN TAF 2021/09/19 12:15 UTC NOAA

TAF NZQN 191105Z 1912/2006 04005KT 9999 BKN055
BECMG 1920/1922 27015KT
FM200000 27015G25KT 9999 -SHRA BKN080
TEMPO 2003/2006 6000 SHRA

Example: see airport list